sensor_id;sensor_type;location;lat;lon;timestamp;P1;durP1;ratioP1;P2;durP2;ratioP2
239;SDS011;104;53.590;10.004;2023-05-14T00:02:26;42.87;;;29.70;;
239;SDS011;104;53.590;10.004;2023-05-14T00:04:53;35.13;;;24.80;;
239;SDS011;104;53.590;10.004;2023-05-14T00:07:21;36.63;;;23.73;;
239;SDS011;104;53.590;10.004;2023-05-14T00:09:54;35.93;;;23.90;;
239;SDS011;104;53.590;10.004;2023-05-14T00:12:21;42.10;;;30.63;;
239;SDS011;104;53.590;10.004;2023-05-14T00:14:49;44.90;;;27.40;;
239;SDS011;104;53.590;10.004;2023-05-14T00:17:17;31.73;;;23.10;;
239;SDS011;104;53.590;10.004;2023-05-14T00:19:44;34.03;;;24.23;;
239;SDS011;104;53.590;10.004;2023-05-14T00:22:11;44.87;;;30.40;;
239;SDS011;104;53.590;10.004;2023-05-14T00:24:37;34.47;;;25.97;;
239;SDS011;104;53.590;10.004;2023-05-14T00:29:34;47.03;;;32.63;;
239;SDS011;104;53.590;10.004;2023-05-14T00:32:03;45.93;;;34.20;;
239;SDS011;104;53.590;10.004;2023-05-14T00:34:31;38.60;;;27.67;;
239;SDS011;104;53.590;10.004;2023-05-14T00:36:58;41.83;;;28.97;;
239;SDS011;104;53.590;10.004;2023-05-14T00:39:26;51.17;;;31.50;;
239;SDS011;104;53.590;10.004;2023-05-14T00:41:53;45.27;;;29.20;;
239;SDS011;104;53.590;10.004;2023-05-14T00:44:20;39.70;;;26.93;;
239;SDS011;104;53.590;10.004;2023-05-14T00:46:47;44.87;;;29.47;;
239;SDS011;104;53.590;10.004;2023-05-14T00:49:16;41.20;;;32.23;;
239;SDS011;104;53.590;10.004;2023-05-14T00:51:44;47.67;;;35.10;;
239;SDS011;104;53.590;10.004;2023-05-14T00:54:12;51.60;;;36.50;;
239;SDS011;104;53.590;10.004;2023-05-14T00:56:39;64.73;;;40.43;;
239;SDS011;104;53.590;10.004;2023-05-14T00:59:07;41.20;;;25.30;;
239;SDS011;104;53.590;10.004;2023-05-14T01:01:34;31.70;;;23.07;;
239;SDS011;104;53.590;10.004;2023-05-14T01:04:01;51.10;;;33.90;;
239;SDS011;104;53.590;10.004;2023-05-14T01:06:32;46.03;;;31.27;;
239;SDS011;104;53.590;10.004;2023-05-14T01:09:07;42.13;;;27.07;;
239;SDS011;104;53.590;10.004;2023-05-14T01:11:46;41.07;;;24.10;;
239;SDS011;104;53.590;10.004;2023-05-14T01:14:20;32.93;;;22.30;;
239;SDS011;104;53.590;10.004;2023-05-14T01:16:49;44.90;;;22.10;;
239;SDS011;104;53.590;10.004;2023-05-14T01:19:20;34.27;;;24.20;;
239;SDS011;104;53.590;10.004;2023-05-14T01:21:49;38.57;;;23.00;;
239;SDS011;104;53.590;10.004;2023-05-14T01:24:16;43.70;;;24.50;;
239;SDS011;104;53.590;10.004;2023-05-14T01:26:44;34.23;;;19.80;;
239;SDS011;104;53.590;10.004;2023-05-14T01:29:12;39.73;;;22.13;;
239;SDS011;104;53.590;10.004;2023-05-14T01:31:42;28.37;;;19.93;;
239;SDS011;104;53.590;10.004;2023-05-14T01:34:10;32.20;;;20.57;;
239;SDS011;104;53.590;10.004;2023-05-14T01:36:38;34.40;;;20.30;;
239;SDS011;104;53.590;10.004;2023-05-14T01:39:07;37.00;;;19.50;;
239;SDS011;104;53.590;10.004;2023-05-14T01:41:36;40.80;;;18.13;;
239;SDS011;104;53.590;10.004;2023-05-14T01:44:04;37.63;;;23.70;;
239;SDS011;104;53.590;10.004;2023-05-14T01:46:31;44.37;;;22.20;;
239;SDS011;104;53.590;10.004;2023-05-14T01:48:59;32.80;;;19.87;;
239;SDS011;104;53.590;10.004;2023-05-14T01:51:26;35.70;;;21.93;;
239;SDS011;104;53.590;10.004;2023-05-14T01:53:53;40.27;;;25.27;;
239;SDS011;104;53.590;10.004;2023-05-14T01:56:22;34.17;;;20.43;;
239;SDS011;104;53.590;10.004;2023-05-14T01:58:49;33.00;;;19.70;;
239;SDS011;104;53.590;10.004;2023-05-14T02:01:17;32.07;;;19.63;;
239;SDS011;104;53.590;10.004;2023-05-14T02:03:44;29.90;;;18.40;;
239;SDS011;104;53.590;10.004;2023-05-14T02:06:11;42.87;;;20.43;;
239;SDS011;104;53.590;10.004;2023-05-14T02:08:38;27.47;;;16.33;;
239;SDS011;104;53.590;10.004;2023-05-14T02:11:06;33.83;;;21.60;;
239;SDS011;104;53.590;10.004;2023-05-14T02:13:34;39.90;;;22.37;;
239;SDS011;104;53.590;10.004;2023-05-14T02:16:02;36.23;;;22.20;;
239;SDS011;104;53.590;10.004;2023-05-14T02:18:29;36.97;;;27.77;;
239;SDS011;104;53.590;10.004;2023-05-14T02:20:57;62.67;;;45.47;;
239;SDS011;104;53.590;10.004;2023-05-14T02:23:24;40.13;;;28.07;;
239;SDS011;104;53.590;10.004;2023-05-14T02:25:51;48.07;;;30.53;;
239;SDS011;104;53.590;10.004;2023-05-14T02:28:18;42.17;;;31.20;;
239;SDS011;104;53.590;10.004;2023-05-14T02:30:47;43.30;;;30.20;;
239;SDS011;104;53.590;10.004;2023-05-14T02:33:14;37.57;;;25.37;;
239;SDS011;104;53.590;10.004;2023-05-14T02:35:41;36.07;;;25.20;;
239;SDS011;104;53.590;10.004;2023-05-14T02:38:09;48.47;;;29.70;;
239;SDS011;104;53.590;10.004;2023-05-14T02:40:36;34.90;;;22.80;;
239;SDS011;104;53.590;10.004;2023-05-14T02:43:03;36.20;;;23.10;;
239;SDS011;104;53.590;10.004;2023-05-14T02:45:30;47.30;;;27.50;;
239;SDS011;104;53.590;10.004;2023-05-14T02:47:59;42.77;;;26.50;;
239;SDS011;104;53.590;10.004;2023-05-14T02:50:26;37.00;;;23.47;;
239;SDS011;104;53.590;10.004;2023-05-14T02:52:54;40.90;;;29.07;;
239;SDS011;104;53.590;10.004;2023-05-14T02:55:22;48.93;;;29.47;;
239;SDS011;104;53.590;10.004;2023-05-14T02:57:50;49.03;;;32.00;;
239;SDS011;104;53.590;10.004;2023-05-14T03:00:17;51.40;;;26.13;;
239;SDS011;104;53.590;10.004;2023-05-14T03:02:45;52.20;;;29.20;;
239;SDS011;104;53.590;10.004;2023-05-14T03:05:14;45.07;;;28.77;;
239;SDS011;104;53.590;10.004;2023-05-14T03:07:41;53.23;;;26.10;;
239;SDS011;104;53.590;10.004;2023-05-14T03:10:08;43.00;;;25.77;;
239;SDS011;104;53.590;10.004;2023-05-14T03:12:36;42.53;;;25.80;;
239;SDS011;104;53.590;10.004;2023-05-14T03:15:03;49.43;;;30.47;;
239;SDS011;104;53.590;10.004;2023-05-14T03:17:31;45.10;;;28.20;;
239;SDS011;104;53.590;10.004;2023-05-14T03:19:58;43.00;;;25.97;;
239;SDS011;104;53.590;10.004;2023-05-14T03:22:27;36.80;;;22.67;;
239;SDS011;104;53.590;10.004;2023-05-14T03:24:54;36.70;;;24.43;;
239;SDS011;104;53.590;10.004;2023-05-14T03:27:22;46.40;;;28.27;;
239;SDS011;104;53.590;10.004;2023-05-14T03:29:49;38.47;;;24.80;;
239;SDS011;104;53.590;10.004;2023-05-14T03:32:16;38.57;;;23.50;;
239;SDS011;104;53.590;10.004;2023-05-14T03:34:44;33.27;;;21.80;;
239;SDS011;104;53.590;10.004;2023-05-14T03:37:11;43.83;;;26.67;;
239;SDS011;104;53.590;10.004;2023-05-14T03:39:39;34.70;;;21.10;;
239;SDS011;104;53.590;10.004;2023-05-14T03:42:07;42.50;;;24.37;;
239;SDS011;104;53.590;10.004;2023-05-14T03:44:33;45.30;;;24.27;;
239;SDS011;104;53.590;10.004;2023-05-14T03:47:01;41.43;;;24.30;;
239;SDS011;104;53.590;10.004;2023-05-14T03:49:28;34.63;;;20.97;;
239;SDS011;104;53.590;10.004;2023-05-14T03:51:55;37.30;;;23.77;;
239;SDS011;104;53.590;10.004;2023-05-14T03:54:23;40.57;;;26.40;;
239;SDS011;104;53.590;10.004;2023-05-14T03:56:52;37.90;;;23.77;;
239;SDS011;104;53.590;10.004;2023-05-14T03:59:19;37.43;;;21.70;;
239;SDS011;104;53.590;10.004;2023-05-14T04:01:46;38.47;;;20.50;;
239;SDS011;104;53.590;10.004;2023-05-14T04:04:13;46.93;;;23.97;;
239;SDS011;104;53.590;10.004;2023-05-14T04:06:40;37.63;;;23.77;;
239;SDS011;104;53.590;10.004;2023-05-14T04:09:08;43.03;;;23.97;;
239;SDS011;104;53.590;10.004;2023-05-14T04:11:36;36.27;;;20.67;;
239;SDS011;104;53.590;10.004;2023-05-14T04:14:04;35.87;;;21.10;;
239;SDS011;104;53.590;10.004;2023-05-14T04:16:32;42.20;;;26.60;;
239;SDS011;104;53.590;10.004;2023-05-14T04:18:59;46.63;;;28.33;;
239;SDS011;104;53.590;10.004;2023-05-14T04:21:27;38.93;;;23.30;;
239;SDS011;104;53.590;10.004;2023-05-14T04:23:55;36.13;;;22.20;;
239;SDS011;104;53.590;10.004;2023-05-14T04:26:22;41.03;;;24.17;;
239;SDS011;104;53.590;10.004;2023-05-14T04:28:49;39.30;;;26.97;;
239;SDS011;104;53.590;10.004;2023-05-14T04:31:18;52.53;;;23.93;;
239;SDS011;104;53.590;10.004;2023-05-14T04:33:45;36.30;;;23.10;;
239;SDS011;104;53.590;10.004;2023-05-14T04:36:13;47.20;;;26.60;;
239;SDS011;104;53.590;10.004;2023-05-14T04:38:40;42.00;;;25.87;;
239;SDS011;104;53.590;10.004;2023-05-14T04:41:07;46.77;;;26.90;;
239;SDS011;104;53.590;10.004;2023-05-14T04:43:34;41.30;;;27.37;;
239;SDS011;104;53.590;10.004;2023-05-14T04:46:02;36.17;;;23.13;;
239;SDS011;104;53.590;10.004;2023-05-14T04:48:31;43.10;;;27.40;;
239;SDS011;104;53.590;10.004;2023-05-14T04:50:58;42.40;;;28.20;;
239;SDS011;104;53.590;10.004;2023-05-14T04:53:25;42.53;;;24.60;;
239;SDS011;104;53.590;10.004;2023-05-14T04:55:52;44.70;;;29.00;;
239;SDS011;104;53.590;10.004;2023-05-14T04:58:20;45.17;;;28.00;;
239;SDS011;104;53.590;10.004;2023-05-14T05:00:48;41.23;;;28.03;;
239;SDS011;104;53.590;10.004;2023-05-14T05:03:15;40.10;;;28.90;;
239;SDS011;104;53.590;10.004;2023-05-14T05:05:44;35.13;;;23.87;;
239;SDS011;104;53.590;10.004;2023-05-14T05:08:11;42.43;;;25.10;;
239;SDS011;104;53.590;10.004;2023-05-14T05:10:38;38.67;;;21.47;;
239;SDS011;104;53.590;10.004;2023-05-14T05:13:06;40.07;;;26.80;;
239;SDS011;104;53.590;10.004;2023-05-14T05:15:33;35.43;;;24.07;;
239;SDS011;104;53.590;10.004;2023-05-14T05:18:00;38.53;;;26.27;;
239;SDS011;104;53.590;10.004;2023-05-14T05:20:27;42.67;;;25.57;;
239;SDS011;104;53.590;10.004;2023-05-14T05:22:56;33.20;;;21.83;;
239;SDS011;104;53.590;10.004;2023-05-14T05:25:23;39.53;;;25.77;;
239;SDS011;104;53.590;10.004;2023-05-14T05:27:51;35.53;;;23.27;;
239;SDS011;104;53.590;10.004;2023-05-14T05:30:18;36.73;;;20.97;;
239;SDS011;104;53.590;10.004;2023-05-14T05:32:45;41.00;;;27.97;;
239;SDS011;104;53.590;10.004;2023-05-14T05:35:13;34.40;;;25.83;;
239;SDS011;104;53.590;10.004;2023-05-14T05:37:41;35.30;;;27.80;;
239;SDS011;104;53.590;10.004;2023-05-14T05:40:10;41.40;;;33.13;;
239;SDS011;104;53.590;10.004;2023-05-14T05:42:39;54.80;;;40.13;;
239;SDS011;104;53.590;10.004;2023-05-14T05:45:06;60.60;;;47.87;;
239;SDS011;104;53.590;10.004;2023-05-14T05:47:33;65.57;;;53.70;;
239;SDS011;104;53.590;10.004;2023-05-14T05:50:01;51.70;;;45.13;;
239;SDS011;104;53.590;10.004;2023-05-14T05:52:28;36.90;;;28.27;;
239;SDS011;104;53.590;10.004;2023-05-14T05:54:55;42.00;;;30.70;;
239;SDS011;104;53.590;10.004;2023-05-14T05:57:24;35.97;;;25.97;;
239;SDS011;104;53.590;10.004;2023-05-14T05:59:52;38.97;;;27.60;;
239;SDS011;104;53.590;10.004;2023-05-14T06:02:20;43.40;;;28.30;;
239;SDS011;104;53.590;10.004;2023-05-14T06:04:47;30.93;;;25.40;;
239;SDS011;104;53.590;10.004;2023-05-14T06:07:15;49.73;;;43.07;;
239;SDS011;104;53.590;10.004;2023-05-14T06:09:43;69.60;;;66.10;;
239;SDS011;104;53.590;10.004;2023-05-14T06:12:10;64.63;;;61.53;;
239;SDS011;104;53.590;10.004;2023-05-14T06:14:38;69.50;;;66.13;;
239;SDS011;104;53.590;10.004;2023-05-14T06:17:06;106.80;;;95.33;;
239;SDS011;104;53.590;10.004;2023-05-14T06:19:33;112.77;;;104.27;;
239;SDS011;104;53.590;10.004;2023-05-14T06:22:00;90.87;;;86.47;;
239;SDS011;104;53.590;10.004;2023-05-14T06:24:28;89.47;;;85.10;;
239;SDS011;104;53.590;10.004;2023-05-14T06:26:55;100.10;;;95.30;;
239;SDS011;104;53.590;10.004;2023-05-14T06:29:22;88.80;;;84.53;;
239;SDS011;104;53.590;10.004;2023-05-14T06:31:51;71.13;;;67.70;;
239;SDS011;104;53.590;10.004;2023-05-14T06:34:18;54.17;;;51.53;;
239;SDS011;104;53.590;10.004;2023-05-14T06:36:45;71.10;;;67.67;;
239;SDS011;104;53.590;10.004;2023-05-14T06:39:12;68.87;;;65.53;;
239;SDS011;104;53.590;10.004;2023-05-14T06:41:39;78.43;;;74.67;;
239;SDS011;104;53.590;10.004;2023-05-14T06:44:06;97.37;;;92.70;;
239;SDS011;104;53.590;10.004;2023-05-14T06:46:33;93.53;;;88.83;;
239;SDS011;104;53.590;10.004;2023-05-14T06:49:02;124.53;;;118.53;;
239;SDS011;104;53.590;10.004;2023-05-14T06:51:29;169.93;;;156.57;;
239;SDS011;104;53.590;10.004;2023-05-14T06:53:56;222.47;;;190.07;;
239;SDS011;104;53.590;10.004;2023-05-14T06:56:23;229.70;;;197.20;;
239;SDS011;104;53.590;10.004;2023-05-14T06:58:50;178.50;;;169.93;;
239;SDS011;104;53.590;10.004;2023-05-14T07:01:18;483.37;;;375.43;;
239;SDS011;104;53.590;10.004;2023-05-14T07:03:45;423.50;;;324.57;;
239;SDS011;104;53.590;10.004;2023-05-14T07:06:13;439.53;;;354.27;;
239;SDS011;104;53.590;10.004;2023-05-14T07:08:41;223.10;;;195.93;;
239;SDS011;104;53.590;10.004;2023-05-14T07:11:10;136.03;;;129.53;;
239;SDS011;104;53.590;10.004;2023-05-14T07:13:37;141.90;;;135.10;;
239;SDS011;104;53.590;10.004;2023-05-14T07:16:05;87.27;;;83.07;;
239;SDS011;104;53.590;10.004;2023-05-14T07:18:33;105.30;;;100.23;;
239;SDS011;104;53.590;10.004;2023-05-14T07:21:00;21.50;;;20.43;;
239;SDS011;104;53.590;10.004;2023-05-14T07:23:30;113.47;;;104.43;;
239;SDS011;104;53.590;10.004;2023-05-14T07:25:57;156.13;;;148.33;;
239;SDS011;104;53.590;10.004;2023-05-14T07:28:24;156.87;;;148.90;;
239;SDS011;104;53.590;10.004;2023-05-14T07:30:51;85.67;;;68.53;;
239;SDS011;104;53.590;10.004;2023-05-14T07:33:18;127.00;;;120.90;;
239;SDS011;104;53.590;10.004;2023-05-14T07:35:46;18.43;;;11.73;;
239;SDS011;104;53.590;10.004;2023-05-14T07:38:13;110.47;;;105.17;;
239;SDS011;104;53.590;10.004;2023-05-14T07:40:44;107.90;;;102.70;;
239;SDS011;104;53.590;10.004;2023-05-14T07:43:11;86.90;;;82.70;;
239;SDS011;104;53.590;10.004;2023-05-14T07:45:38;59.13;;;56.27;;
239;SDS011;104;53.590;10.004;2023-05-14T07:48:05;108.87;;;103.63;;
239;SDS011;104;53.590;10.004;2023-05-14T07:50:32;97.80;;;93.10;;
239;SDS011;104;53.590;10.004;2023-05-14T07:52:59;89.03;;;84.73;;
239;SDS011;104;53.590;10.004;2023-05-14T07:55:26;74.97;;;71.37;;
239;SDS011;104;53.590;10.004;2023-05-14T07:57:55;69.13;;;63.57;;
239;SDS011;104;53.590;10.004;2023-05-14T08:00:22;52.53;;;49.97;;
239;SDS011;104;53.590;10.004;2023-05-14T08:02:49;42.37;;;40.27;;
239;SDS011;104;53.590;10.004;2023-05-14T08:05:16;41.90;;;39.87;;
239;SDS011;104;53.590;10.004;2023-05-14T08:07:43;67.13;;;63.90;;
239;SDS011;104;53.590;10.004;2023-05-14T08:10:10;45.77;;;40.43;;
239;SDS011;104;53.590;10.004;2023-05-14T08:12:37;35.13;;;31.30;;
239;SDS011;104;53.590;10.004;2023-05-14T08:15:06;30.53;;;26.70;;
239;SDS011;104;53.590;10.004;2023-05-14T08:17:34;43.67;;;29.73;;
239;SDS011;104;53.590;10.004;2023-05-14T08:20:01;35.63;;;24.73;;
239;SDS011;104;53.590;10.004;2023-05-14T08:22:30;31.40;;;28.30;;
239;SDS011;104;53.590;10.004;2023-05-14T08:24:57;29.70;;;24.80;;
239;SDS011;104;53.590;10.004;2023-05-14T08:27:26;27.80;;;21.23;;
239;SDS011;104;53.590;10.004;2023-05-14T08:29:53;35.00;;;20.97;;
239;SDS011;104;53.590;10.004;2023-05-14T08:32:21;23.20;;;17.50;;
239;SDS011;104;53.590;10.004;2023-05-14T08:34:48;41.07;;;26.97;;
239;SDS011;104;53.590;10.004;2023-05-14T08:37:16;33.63;;;28.97;;
239;SDS011;104;53.590;10.004;2023-05-14T08:39:43;57.90;;;55.00;;
239;SDS011;104;53.590;10.004;2023-05-14T08:42:11;49.70;;;47.30;;
239;SDS011;104;53.590;10.004;2023-05-14T08:44:44;49.57;;;44.50;;
239;SDS011;104;53.590;10.004;2023-05-14T08:47:14;46.27;;;41.17;;
239;SDS011;104;53.590;10.004;2023-05-14T08:49:45;43.37;;;31.83;;
239;SDS011;104;53.590;10.004;2023-05-14T08:52:13;29.97;;;21.53;;
239;SDS011;104;53.590;10.004;2023-05-14T08:54:43;27.57;;;20.37;;
239;SDS011;104;53.590;10.004;2023-05-14T08:57:12;27.03;;;20.63;;
239;SDS011;104;53.590;10.004;2023-05-14T08:59:40;29.53;;;25.60;;
239;SDS011;104;53.590;10.004;2023-05-14T09:02:07;38.40;;;27.33;;
239;SDS011;104;53.590;10.004;2023-05-14T09:04:36;36.67;;;27.60;;
239;SDS011;104;53.590;10.004;2023-05-14T09:07:06;34.30;;;25.77;;
239;SDS011;104;53.590;10.004;2023-05-14T09:09:33;31.50;;;26.87;;
239;SDS011;104;53.590;10.004;2023-05-14T09:12:01;40.07;;;38.10;;
239;SDS011;104;53.590;10.004;2023-05-14T09:14:29;39.20;;;37.20;;
239;SDS011;104;53.590;10.004;2023-05-14T09:16:56;52.90;;;43.33;;
239;SDS011;104;53.590;10.004;2023-05-14T09:19:23;44.07;;;37.27;;
239;SDS011;104;53.590;10.004;2023-05-14T09:21:51;36.63;;;34.47;;
239;SDS011;104;53.590;10.004;2023-05-14T09:24:20;46.87;;;38.83;;
239;SDS011;104;53.590;10.004;2023-05-14T09:26:48;25.97;;;24.07;;
239;SDS011;104;53.590;10.004;2023-05-14T09:29:16;29.53;;;28.07;;
239;SDS011;104;53.590;10.004;2023-05-14T09:31:44;55.80;;;38.10;;
239;SDS011;104;53.590;10.004;2023-05-14T09:34:11;32.00;;;30.40;;
239;SDS011;104;53.590;10.004;2023-05-14T09:36:49;26.90;;;22.83;;
239;SDS011;104;53.590;10.004;2023-05-14T09:39:21;31.97;;;23.13;;
239;SDS011;104;53.590;10.004;2023-05-14T09:41:49;23.50;;;17.43;;
239;SDS011;104;53.590;10.004;2023-05-14T09:44:17;14.40;;;10.07;;
239;SDS011;104;53.590;10.004;2023-05-14T09:46:53;28.50;;;13.53;;
239;SDS011;104;53.590;10.004;2023-05-14T09:49:21;13.47;;;9.90;;
239;SDS011;104;53.590;10.004;2023-05-14T09:51:48;18.20;;;13.53;;
239;SDS011;104;53.590;10.004;2023-05-14T09:54:15;26.30;;;19.67;;
239;SDS011;104;53.590;10.004;2023-05-14T09:56:44;26.30;;;22.87;;
239;SDS011;104;53.590;10.004;2023-05-14T09:59:11;29.63;;;23.73;;
239;SDS011;104;53.590;10.004;2023-05-14T10:01:39;24.73;;;20.00;;
239;SDS011;104;53.590;10.004;2023-05-14T10:04:08;30.23;;;24.93;;
239;SDS011;104;53.590;10.004;2023-05-14T10:06:36;34.87;;;33.17;;
239;SDS011;104;53.590;10.004;2023-05-14T10:09:04;32.93;;;28.87;;
239;SDS011;104;53.590;10.004;2023-05-14T10:11:37;49.30;;;29.43;;
239;SDS011;104;53.590;10.004;2023-05-14T10:14:10;18.63;;;11.77;;
239;SDS011;104;53.590;10.004;2023-05-14T10:16:43;12.07;;;9.70;;
239;SDS011;104;53.590;10.004;2023-05-14T10:19:14;18.97;;;10.73;;
239;SDS011;104;53.590;10.004;2023-05-14T10:21:43;14.50;;;9.17;;
239;SDS011;104;53.590;10.004;2023-05-14T10:24:12;93.13;;;88.63;;
239;SDS011;104;53.590;10.004;2023-05-14T10:26:40;305.63;;;266.40;;
239;SDS011;104;53.590;10.004;2023-05-14T10:29:09;276.70;;;237.87;;
239;SDS011;104;53.590;10.004;2023-05-14T10:31:44;239.77;;;192.83;;
239;SDS011;104;53.590;10.004;2023-05-14T10:34:32;178.40;;;168.00;;
239;SDS011;104;53.590;10.004;2023-05-14T10:37:02;248.03;;;231.50;;
239;SDS011;104;53.590;10.004;2023-05-14T10:39:42;232.63;;;213.47;;
239;SDS011;104;53.590;10.004;2023-05-14T10:42:10;175.40;;;166.97;;
239;SDS011;104;53.590;10.004;2023-05-14T10:44:41;203.07;;;193.10;;
239;SDS011;104;53.590;10.004;2023-05-14T10:47:15;193.80;;;184.50;;
239;SDS011;104;53.590;10.004;2023-05-14T10:49:43;51.67;;;49.17;;
239;SDS011;104;53.590;10.004;2023-05-14T10:52:14;37.77;;;35.93;;
239;SDS011;104;53.590;10.004;2023-05-14T10:54:49;41.57;;;39.57;;
239;SDS011;104;53.590;10.004;2023-05-14T10:57:18;81.83;;;77.87;;
239;SDS011;104;53.590;10.004;2023-05-14T10:59:48;131.60;;;125.30;;
239;SDS011;104;53.590;10.004;2023-05-14T11:02:17;88.57;;;84.30;;
239;SDS011;104;53.590;10.004;2023-05-14T11:04:51;78.20;;;74.40;;
239;SDS011;104;53.590;10.004;2023-05-14T11:07:23;134.10;;;127.67;;
239;SDS011;104;53.590;10.004;2023-05-14T11:09:53;127.80;;;121.67;;
239;SDS011;104;53.590;10.004;2023-05-14T11:12:27;155.10;;;147.70;;
239;SDS011;104;53.590;10.004;2023-05-14T11:14:57;124.33;;;118.33;;
239;SDS011;104;53.590;10.004;2023-05-14T11:17:26;153.77;;;146.40;;
239;SDS011;104;53.590;10.004;2023-05-14T11:19:54;162.87;;;155.07;;
239;SDS011;104;53.590;10.004;2023-05-14T11:22:21;54.23;;;51.40;;
239;SDS011;104;53.590;10.004;2023-05-14T11:24:49;43.73;;;39.30;;
239;SDS011;104;53.590;10.004;2023-05-14T11:27:16;135.47;;;128.97;;
239;SDS011;104;53.590;10.004;2023-05-14T11:29:43;197.17;;;187.73;;
239;SDS011;104;53.590;10.004;2023-05-14T11:32:13;33.80;;;21.93;;
239;SDS011;104;53.590;10.004;2023-05-14T11:34:41;137.87;;;131.27;;
239;SDS011;104;53.590;10.004;2023-05-14T11:37:10;119.33;;;113.60;;
239;SDS011;104;53.590;10.004;2023-05-14T11:39:38;75.63;;;71.97;;
239;SDS011;104;53.590;10.004;2023-05-14T11:42:08;64.67;;;57.47;;
239;SDS011;104;53.590;10.004;2023-05-14T11:44:38;91.80;;;87.37;;
239;SDS011;104;53.590;10.004;2023-05-14T11:47:08;58.77;;;55.93;;
239;SDS011;104;53.590;10.004;2023-05-14T11:49:37;32.77;;;31.10;;
239;SDS011;104;53.590;10.004;2023-05-14T11:52:05;25.70;;;21.90;;
239;SDS011;104;53.590;10.004;2023-05-14T11:54:34;27.50;;;20.93;;
239;SDS011;104;53.590;10.004;2023-05-14T11:57:06;33.13;;;23.63;;
239;SDS011;104;53.590;10.004;2023-05-14T11:59:34;22.93;;;18.40;;
239;SDS011;104;53.590;10.004;2023-05-14T12:02:02;29.63;;;18.00;;
239;SDS011;104;53.590;10.004;2023-05-14T12:04:29;22.67;;;19.90;;
239;SDS011;104;53.590;10.004;2023-05-14T12:06:58;21.80;;;19.50;;
239;SDS011;104;53.590;10.004;2023-05-14T12:09:25;19.97;;;15.23;;
239;SDS011;104;53.590;10.004;2023-05-14T12:11:52;21.10;;;14.60;;
239;SDS011;104;53.590;10.004;2023-05-14T12:14:20;24.40;;;20.80;;
239;SDS011;104;53.590;10.004;2023-05-14T12:16:48;26.60;;;19.23;;
239;SDS011;104;53.590;10.004;2023-05-14T12:19:16;26.43;;;24.87;;
239;SDS011;104;53.590;10.004;2023-05-14T12:21:45;26.87;;;22.47;;
239;SDS011;104;53.590;10.004;2023-05-14T12:24:16;27.63;;;21.80;;
239;SDS011;104;53.590;10.004;2023-05-14T12:26:44;32.80;;;29.10;;
239;SDS011;104;53.590;10.004;2023-05-14T12:29:13;30.73;;;26.60;;
239;SDS011;104;53.590;10.004;2023-05-14T12:31:43;38.13;;;31.03;;
239;SDS011;104;53.590;10.004;2023-05-14T12:34:11;39.30;;;34.30;;
239;SDS011;104;53.590;10.004;2023-05-14T12:36:38;31.40;;;29.87;;
239;SDS011;104;53.590;10.004;2023-05-14T12:39:05;38.20;;;36.30;;
239;SDS011;104;53.590;10.004;2023-05-14T12:41:35;51.27;;;48.77;;
239;SDS011;104;53.590;10.004;2023-05-14T12:44:02;57.90;;;54.67;;
239;SDS011;104;53.590;10.004;2023-05-14T12:46:30;62.80;;;54.03;;
239;SDS011;104;53.590;10.004;2023-05-14T12:48:58;103.23;;;98.27;;
239;SDS011;104;53.590;10.004;2023-05-14T12:51:25;338.50;;;316.70;;
239;SDS011;104;53.590;10.004;2023-05-14T12:53:52;355.70;;;329.20;;
239;SDS011;104;53.590;10.004;2023-05-14T12:56:19;284.50;;;270.90;;
239;SDS011;104;53.590;10.004;2023-05-14T12:58:53;332.63;;;316.73;;
239;SDS011;104;53.590;10.004;2023-05-14T13:01:21;218.30;;;207.83;;
239;SDS011;104;53.590;10.004;2023-05-14T13:03:48;481.43;;;436.43;;
239;SDS011;104;53.590;10.004;2023-05-14T13:06:15;409.33;;;383.70;;
239;SDS011;104;53.590;10.004;2023-05-14T13:08:43;385.20;;;359.50;;
239;SDS011;104;53.590;10.004;2023-05-14T13:11:10;85.23;;;81.13;;
239;SDS011;104;53.590;10.004;2023-05-14T13:13:38;19.80;;;13.80;;
239;SDS011;104;53.590;10.004;2023-05-14T13:16:06;25.20;;;18.20;;
239;SDS011;104;53.590;10.004;2023-05-14T13:18:33;22.87;;;17.30;;
239;SDS011;104;53.590;10.004;2023-05-14T13:21:00;27.30;;;14.40;;
239;SDS011;104;53.590;10.004;2023-05-14T13:23:30;21.67;;;12.37;;
239;SDS011;104;53.590;10.004;2023-05-14T13:25:57;52.37;;;42.97;;
239;SDS011;104;53.590;10.004;2023-05-14T13:28:24;255.43;;;242.77;;
239;SDS011;104;53.590;10.004;2023-05-14T13:31:05;477.20;;;355.70;;
239;SDS011;104;53.590;10.004;2023-05-14T13:33:34;260.63;;;238.53;;
239;SDS011;104;53.590;10.004;2023-05-14T13:36:02;181.97;;;157.33;;
239;SDS011;104;53.590;10.004;2023-05-14T13:38:30;255.47;;;211.80;;
239;SDS011;104;53.590;10.004;2023-05-14T13:40:57;420.97;;;304.33;;
239;SDS011;104;53.590;10.004;2023-05-14T13:43:26;51.93;;;46.40;;
239;SDS011;104;53.590;10.004;2023-05-14T13:45:54;64.37;;;57.50;;
239;SDS011;104;53.590;10.004;2023-05-14T13:48:23;133.90;;;109.43;;
239;SDS011;104;53.590;10.004;2023-05-14T13:50:51;106.40;;;89.63;;
239;SDS011;104;53.590;10.004;2023-05-14T13:53:18;98.90;;;88.37;;
239;SDS011;104;53.590;10.004;2023-05-14T13:55:45;67.33;;;59.60;;
239;SDS011;104;53.590;10.004;2023-05-14T13:58:13;57.90;;;47.40;;
239;SDS011;104;53.590;10.004;2023-05-14T14:00:40;48.87;;;45.33;;
239;SDS011;104;53.590;10.004;2023-05-14T14:03:07;61.20;;;47.30;;
239;SDS011;104;53.590;10.004;2023-05-14T14:05:36;53.07;;;42.00;;
239;SDS011;104;53.590;10.004;2023-05-14T14:08:03;49.83;;;42.27;;
239;SDS011;104;53.590;10.004;2023-05-14T14:10:30;39.50;;;33.90;;
239;SDS011;104;53.590;10.004;2023-05-14T14:12:57;51.47;;;46.20;;
239;SDS011;104;53.590;10.004;2023-05-14T14:15:24;37.40;;;33.50;;
239;SDS011;104;53.590;10.004;2023-05-14T14:17:52;44.67;;;42.50;;
239;SDS011;104;53.590;10.004;2023-05-14T14:20:19;52.30;;;46.77;;
239;SDS011;104;53.590;10.004;2023-05-14T14:22:48;76.93;;;70.90;;
239;SDS011;104;53.590;10.004;2023-05-14T14:25:15;47.03;;;44.73;;
239;SDS011;104;53.590;10.004;2023-05-14T14:27:43;60.37;;;53.07;;
239;SDS011;104;53.590;10.004;2023-05-14T14:30:10;54.77;;;48.03;;
239;SDS011;104;53.590;10.004;2023-05-14T14:32:41;44.27;;;39.63;;
239;SDS011;104;53.590;10.004;2023-05-14T14:35:09;39.03;;;36.80;;
239;SDS011;104;53.590;10.004;2023-05-14T14:37:37;46.27;;;41.33;;
239;SDS011;104;53.590;10.004;2023-05-14T14:40:07;56.80;;;53.00;;
239;SDS011;104;53.590;10.004;2023-05-14T14:42:34;49.80;;;44.27;;
239;SDS011;104;53.590;10.004;2023-05-14T14:45:02;47.90;;;40.93;;
239;SDS011;104;53.590;10.004;2023-05-14T14:47:30;48.73;;;43.83;;
239;SDS011;104;53.590;10.004;2023-05-14T14:50:00;46.43;;;42.60;;
239;SDS011;104;53.590;10.004;2023-05-14T14:52:27;46.53;;;44.27;;
239;SDS011;104;53.590;10.004;2023-05-14T14:54:54;29.50;;;25.80;;
239;SDS011;104;53.590;10.004;2023-05-14T14:57:23;20.37;;;11.23;;
239;SDS011;104;53.590;10.004;2023-05-14T14:59:50;18.87;;;13.37;;
239;SDS011;104;53.590;10.004;2023-05-14T15:02:17;50.60;;;48.17;;
239;SDS011;104;53.590;10.004;2023-05-14T15:04:45;57.80;;;55.00;;
239;SDS011;104;53.590;10.004;2023-05-14T15:07:13;57.63;;;54.87;;